METAR AND TAF INFORMATION
METAR FOR LICC
ADDS - METARS form results

(1957 UTC 24 February 2020)
Data provider http://aviationweather.gov/metar/data/
 
METAR text: LICC 241950Z 28003KT CAVOK 12/08 Q1020
Conditions at: LICC (CATANIA/FONTANAR, IT) observed 1950 UTC 24 February 2020
Temperature: 12.0°C (54°F)
Dewpoint: 8.0°C (46°F) [RH = 76%]
Pressure (altimeter): 30.12 inches Hg (1020.0 mb)
Winds: from the W (280 degrees) at 3 MPH (3 knots; 1.5 m/s)
Visibility: 6 or more miles (10+ km)
Ceiling: ceiling and visibility are OK
Clouds: unknown
Weather: no significant weather observed at this time

METAR text: LICC 241920Z 29004KT 260V360 CAVOK 13/10 Q1020
Conditions at: LICC (CATANIA/FONTANAR, IT) observed 1920 UTC 24 February 2020
Temperature: 13.0°C (55°F)
Dewpoint: 10.0°C (50°F) [RH = 82%]
Pressure (altimeter): 30.12 inches Hg (1020.0 mb)
Winds: from the WNW (290 degrees) at 5 MPH (4 knots; 2.1 m/s)
Visibility: 6 or more miles (10+ km)
Ceiling: ceiling and visibility are OK
Clouds: unknown
Weather: no significant weather observed at this time

Forecast for: LICC (CATANIA/FONTANAR, IT)
Text: TAF LICC 241700Z 2418/2518 25006KT CAVOK
Forecast period: 1800 UTC 24 February 2020 to 0900 UTC 25 February 2020
Forecast type: FROM: standard forecast or significant change
Winds: from the WSW (250 degrees) at 7 MPH (6 knots; 3.1 m/s)
Visibility: 6 or more miles 10+ km)
Ceiling: unknown
Clouds: missing
Weather: NSW  (no significant weather)
Text: BECMG 2509/2511 08008KT
Forecast period: 0900 to 1600 UTC 25 February 2020
Forecast type: BECOMING: Conditions expected to become as follows by 1100 UTC 25 February 2020
Winds: from the E (80 degrees) at 9 MPH (8 knots; 4.1 m/s)
Visibility: 6 or more miles 10+ km)
Ceiling: unknown
Clouds: missing
Weather: NSW  (no significant weather)
Text: BECMG 2516/2518 25010KT
Forecast period: 1600 to 1800 UTC 25 February 2020
Forecast type: BECOMING: Conditions expected to become as follows by 1800 UTC 25 February 2020
Winds: from the WSW (250 degrees) at 12 MPH (10 knots; 5.1 m/s)
Visibility: 6 or more miles 10+ km)
Ceiling: unknown
Clouds: missing
Weather: NSW  (no significant weather)

 AIRPORT MAP

 RUNWAY INFORMATION
Runway 08 Runway length 7989 ft Runway width 148 ft
Runway elevation 37 ft Runway displaced threshold 312 ft Runway heading 84
Runway 26 Runway length 7989 ft Runway width 148 ft
Runway elevation 17 ft Runway displaced threshold 279 ft Runway heading 264

 AIRPORT FREQUENCIES
Type APP Name APP Frequency 119.25 MHZ
Type DIR Name DIRECTOR Frequency 120.8 MHZ
Type GND Name GND Frequency 129.725 MHZ
Type TWR Name TWR Frequency 118.7 MHZ

 AIRPORT NEAR NAVIGATION AIDS
Type NDB Name Catania Frequency 345 KHZ
Type VOR-DME Name Catania Fontanarossa Frequency 116250 KHZ
Type NDB Name Catania Fontanarossa Frequency 407 KHZ